sensor_id;sensor_type;location;lat;lon;timestamp;P1;durP1;ratioP1;P2;durP2;ratioP2
52724;SDS011;38621;52.830;6.914;2023-02-20T00:00:41;6.47;;;4.25;;
52724;SDS011;38621;52.830;6.914;2023-02-20T00:03:07;5.85;;;4.40;;
52724;SDS011;38621;52.830;6.914;2023-02-20T00:05:33;4.93;;;3.67;;
52724;SDS011;38621;52.830;6.914;2023-02-20T00:07:59;4.90;;;3.63;;
52724;SDS011;38621;52.830;6.914;2023-02-20T00:10:25;6.95;;;4.35;;
52724;SDS011;38621;52.830;6.914;2023-02-20T00:12:51;6.32;;;4.47;;
52724;SDS011;38621;52.830;6.914;2023-02-20T00:15:17;5.75;;;4.50;;
52724;SDS011;38621;52.830;6.914;2023-02-20T00:17:45;6.38;;;4.22;;
52724;SDS011;38621;52.830;6.914;2023-02-20T00:20:15;5.90;;;4.40;;
52724;SDS011;38621;52.830;6.914;2023-02-20T00:22:43;6.20;;;4.57;;
52724;SDS011;38621;52.830;6.914;2023-02-20T00:25:09;6.72;;;4.50;;
52724;SDS011;38621;52.830;6.914;2023-02-20T00:27:35;7.22;;;4.85;;
52724;SDS011;38621;52.830;6.914;2023-02-20T00:30:00;5.57;;;4.40;;
52724;SDS011;38621;52.830;6.914;2023-02-20T00:32:26;6.65;;;4.72;;
52724;SDS011;38621;52.830;6.914;2023-02-20T00:34:52;6.70;;;5.18;;
52724;SDS011;38621;52.830;6.914;2023-02-20T00:37:18;7.57;;;5.53;;
52724;SDS011;38621;52.830;6.914;2023-02-20T00:39:43;9.07;;;4.45;;
52724;SDS011;38621;52.830;6.914;2023-02-20T00:42:09;8.15;;;6.07;;
52724;SDS011;38621;52.830;6.914;2023-02-20T00:44:35;8.88;;;5.93;;
52724;SDS011;38621;52.830;6.914;2023-02-20T00:47:00;6.25;;;4.82;;
52724;SDS011;38621;52.830;6.914;2023-02-20T00:49:26;6.82;;;5.05;;
52724;SDS011;38621;52.830;6.914;2023-02-20T00:51:52;5.78;;;4.68;;
52724;SDS011;38621;52.830;6.914;2023-02-20T00:54:18;7.53;;;5.80;;
52724;SDS011;38621;52.830;6.914;2023-02-20T00:56:44;6.82;;;5.18;;
52724;SDS011;38621;52.830;6.914;2023-02-20T00:59:09;6.95;;;5.80;;
52724;SDS011;38621;52.830;6.914;2023-02-20T01:01:35;7.53;;;5.75;;
52724;SDS011;38621;52.830;6.914;2023-02-20T01:04:01;7.60;;;5.60;;
52724;SDS011;38621;52.830;6.914;2023-02-20T01:06:26;8.00;;;5.53;;
52724;SDS011;38621;52.830;6.914;2023-02-20T01:08:52;8.00;;;5.35;;
52724;SDS011;38621;52.830;6.914;2023-02-20T01:11:18;7.70;;;5.32;;
52724;SDS011;38621;52.830;6.914;2023-02-20T01:13:44;7.25;;;5.10;;
52724;SDS011;38621;52.830;6.914;2023-02-20T01:16:09;8.55;;;5.68;;
52724;SDS011;38621;52.830;6.914;2023-02-20T01:18:35;7.38;;;5.60;;
52724;SDS011;38621;52.830;6.914;2023-02-20T01:21:00;6.20;;;4.63;;
52724;SDS011;38621;52.830;6.914;2023-02-20T01:23:26;8.30;;;6.47;;
52724;SDS011;38621;52.830;6.914;2023-02-20T01:25:52;5.82;;;4.75;;
52724;SDS011;38621;52.830;6.914;2023-02-20T01:28:18;8.07;;;6.30;;
52724;SDS011;38621;52.830;6.914;2023-02-20T01:30:43;7.32;;;5.35;;
52724;SDS011;38621;52.830;6.914;2023-02-20T01:33:09;8.15;;;5.65;;
52724;SDS011;38621;52.830;6.914;2023-02-20T01:35:35;7.70;;;6.13;;
52724;SDS011;38621;52.830;6.914;2023-02-20T01:38:01;8.57;;;6.13;;
52724;SDS011;38621;52.830;6.914;2023-02-20T01:40:30;9.23;;;6.13;;
52724;SDS011;38621;52.830;6.914;2023-02-20T01:42:57;9.52;;;5.38;;
52724;SDS011;38621;52.830;6.914;2023-02-20T01:47:49;9.90;;;6.32;;
52724;SDS011;38621;52.830;6.914;2023-02-20T01:50:17;9.25;;;6.55;;
52724;SDS011;38621;52.830;6.914;2023-02-20T01:52:46;8.90;;;6.35;;
52724;SDS011;38621;52.830;6.914;2023-02-20T01:57:53;8.88;;;5.80;;
52724;SDS011;38621;52.830;6.914;2023-02-20T02:00:23;9.82;;;6.40;;
52724;SDS011;38621;52.830;6.914;2023-02-20T02:02:54;9.65;;;6.38;;
52724;SDS011;38621;52.830;6.914;2023-02-20T02:05:24;9.52;;;6.60;;
52724;SDS011;38621;52.830;6.914;2023-02-20T02:07:51;11.25;;;6.90;;
52724;SDS011;38621;52.830;6.914;2023-02-20T02:10:19;10.50;;;6.63;;
52724;SDS011;38621;52.830;6.914;2023-02-20T02:12:50;8.23;;;5.63;;
52724;SDS011;38621;52.830;6.914;2023-02-20T02:15:19;8.73;;;5.95;;
52724;SDS011;38621;52.830;6.914;2023-02-20T02:34:27;9.13;;;6.85;;
52724;SDS011;38621;52.830;6.914;2023-02-20T02:37:07;10.05;;;6.28;;
52724;SDS011;38621;52.830;6.914;2023-02-20T02:40:08;10.27;;;6.43;;
52724;SDS011;38621;52.830;6.914;2023-02-20T02:42:48;9.00;;;6.68;;
52724;SDS011;38621;52.830;6.914;2023-02-20T02:45:23;9.23;;;6.30;;
52724;SDS011;38621;52.830;6.914;2023-02-20T02:51:01;9.63;;;6.13;;
52724;SDS011;38621;52.830;6.914;2023-02-20T02:53:31;10.88;;;6.45;;
52724;SDS011;38621;52.830;6.914;2023-02-20T02:55:57;12.43;;;8.02;;
52724;SDS011;38621;52.830;6.914;2023-02-20T02:58:43;10.93;;;7.07;;
52724;SDS011;38621;52.830;6.914;2023-02-20T03:01:08;12.10;;;7.45;;
52724;SDS011;38621;52.830;6.914;2023-02-20T03:03:36;11.60;;;7.60;;
52724;SDS011;38621;52.830;6.914;2023-02-20T03:06:15;9.93;;;6.53;;
52724;SDS011;38621;52.830;6.914;2023-02-20T03:12:05;10.85;;;7.05;;
52724;SDS011;38621;52.830;6.914;2023-02-20T03:14:44;9.82;;;6.97;;
52724;SDS011;38621;52.830;6.914;2023-02-20T03:20:19;13.45;;;7.13;;
52724;SDS011;38621;52.830;6.914;2023-02-20T03:22:53;13.38;;;7.57;;
52724;SDS011;38621;52.830;6.914;2023-02-20T03:25:24;10.93;;;6.78;;
52724;SDS011;38621;52.830;6.914;2023-02-20T03:28:00;10.57;;;6.95;;
52724;SDS011;38621;52.830;6.914;2023-02-20T03:30:43;14.40;;;8.18;;
52724;SDS011;38621;52.830;6.914;2023-02-20T03:33:28;11.30;;;8.25;;
52724;SDS011;38621;52.830;6.914;2023-02-20T03:36:19;13.02;;;8.52;;
52724;SDS011;38621;52.830;6.914;2023-02-20T03:39:17;11.52;;;8.68;;
52724;SDS011;38621;52.830;6.914;2023-02-20T03:42:06;14.20;;;8.73;;
52724;SDS011;38621;52.830;6.914;2023-02-20T03:44:54;14.68;;;8.35;;
52724;SDS011;38621;52.830;6.914;2023-02-20T03:47:23;11.02;;;8.65;;
52724;SDS011;38621;52.830;6.914;2023-02-20T03:49:51;12.98;;;8.68;;
52724;SDS011;38621;52.830;6.914;2023-02-20T03:52:37;13.02;;;9.00;;
52724;SDS011;38621;52.830;6.914;2023-02-20T03:55:03;12.75;;;8.57;;
52724;SDS011;38621;52.830;6.914;2023-02-20T03:57:30;15.90;;;9.20;;
52724;SDS011;38621;52.830;6.914;2023-02-20T04:00:02;13.85;;;10.25;;
52724;SDS011;38621;52.830;6.914;2023-02-20T04:02:36;17.50;;;10.20;;
52724;SDS011;38621;52.830;6.914;2023-02-20T04:05:07;13.38;;;9.13;;
52724;SDS011;38621;52.830;6.914;2023-02-20T04:07:41;14.75;;;9.98;;
52724;SDS011;38621;52.830;6.914;2023-02-20T04:10:16;16.00;;;10.60;;
52724;SDS011;38621;52.830;6.914;2023-02-20T04:12:46;14.90;;;9.70;;
52724;SDS011;38621;52.830;6.914;2023-02-20T04:15:14;14.32;;;10.10;;
52724;SDS011;38621;52.830;6.914;2023-02-20T04:17:43;15.73;;;10.60;;
52724;SDS011;38621;52.830;6.914;2023-02-20T04:20:12;17.00;;;12.50;;
52724;SDS011;38621;52.830;6.914;2023-02-20T04:22:40;15.07;;;11.45;;
52724;SDS011;38621;52.830;6.914;2023-02-20T04:28:17;17.73;;;12.52;;
52724;SDS011;38621;52.830;6.914;2023-02-20T04:30:43;19.80;;;11.27;;
52724;SDS011;38621;52.830;6.914;2023-02-20T04:33:09;17.33;;;11.40;;
52724;SDS011;38621;52.830;6.914;2023-02-20T04:35:37;17.98;;;12.32;;
52724;SDS011;38621;52.830;6.914;2023-02-20T04:38:04;16.58;;;11.63;;
52724;SDS011;38621;52.830;6.914;2023-02-20T04:40:30;15.77;;;11.27;;
52724;SDS011;38621;52.830;6.914;2023-02-20T04:42:56;18.65;;;13.07;;
52724;SDS011;38621;52.830;6.914;2023-02-20T04:45:21;19.10;;;12.93;;
52724;SDS011;38621;52.830;6.914;2023-02-20T04:47:47;19.55;;;11.55;;
52724;SDS011;38621;52.830;6.914;2023-02-20T04:50:20;19.05;;;11.05;;
52724;SDS011;38621;52.830;6.914;2023-02-20T04:52:49;17.27;;;12.07;;
52724;SDS011;38621;52.830;6.914;2023-02-20T04:55:14;18.42;;;12.77;;
52724;SDS011;38621;52.830;6.914;2023-02-20T04:57:40;18.92;;;12.02;;
52724;SDS011;38621;52.830;6.914;2023-02-20T05:00:06;22.05;;;13.40;;
52724;SDS011;38621;52.830;6.914;2023-02-20T05:02:34;21.65;;;13.05;;
52724;SDS011;38621;52.830;6.914;2023-02-20T05:05:02;22.83;;;13.02;;
52724;SDS011;38621;52.830;6.914;2023-02-20T05:07:28;24.15;;;13.43;;
52724;SDS011;38621;52.830;6.914;2023-02-20T05:09:54;21.58;;;14.00;;
52724;SDS011;38621;52.830;6.914;2023-02-20T05:12:20;23.85;;;14.52;;
52724;SDS011;38621;52.830;6.914;2023-02-20T05:14:46;20.65;;;12.98;;
52724;SDS011;38621;52.830;6.914;2023-02-20T05:17:11;22.17;;;12.32;;
52724;SDS011;38621;52.830;6.914;2023-02-20T05:19:37;21.98;;;14.82;;
52724;SDS011;38621;52.830;6.914;2023-02-20T05:22:05;20.58;;;14.52;;
52724;SDS011;38621;52.830;6.914;2023-02-20T05:24:45;25.08;;;14.02;;
52724;SDS011;38621;52.830;6.914;2023-02-20T05:27:12;26.63;;;13.68;;
52724;SDS011;38621;52.830;6.914;2023-02-20T05:29:43;20.58;;;11.70;;
52724;SDS011;38621;52.830;6.914;2023-02-20T05:32:14;20.67;;;13.27;;
52724;SDS011;38621;52.830;6.914;2023-02-20T05:34:41;24.02;;;13.13;;
52724;SDS011;38621;52.830;6.914;2023-02-20T05:37:07;22.27;;;14.38;;
52724;SDS011;38621;52.830;6.914;2023-02-20T05:39:33;19.20;;;11.35;;
52724;SDS011;38621;52.830;6.914;2023-02-20T05:41:59;16.98;;;12.25;;
52724;SDS011;38621;52.830;6.914;2023-02-20T05:44:25;22.42;;;13.80;;
52724;SDS011;38621;52.830;6.914;2023-02-20T05:46:50;20.33;;;13.27;;
52724;SDS011;38621;52.830;6.914;2023-02-20T05:49:18;21.30;;;12.52;;
52724;SDS011;38621;52.830;6.914;2023-02-20T05:51:44;21.70;;;11.70;;
52724;SDS011;38621;52.830;6.914;2023-02-20T05:54:10;20.00;;;11.65;;
52724;SDS011;38621;52.830;6.914;2023-02-20T05:56:39;22.40;;;12.43;;
52724;SDS011;38621;52.830;6.914;2023-02-20T05:59:06;20.58;;;13.20;;
52724;SDS011;38621;52.830;6.914;2023-02-20T06:01:31;21.50;;;11.70;;
52724;SDS011;38621;52.830;6.914;2023-02-20T06:03:57;22.05;;;12.05;;
52724;SDS011;38621;52.830;6.914;2023-02-20T06:06:30;21.58;;;11.25;;
52724;SDS011;38621;52.830;6.914;2023-02-20T06:09:00;22.90;;;12.55;;
52724;SDS011;38621;52.830;6.914;2023-02-20T06:11:27;24.30;;;13.43;;
52724;SDS011;38621;52.830;6.914;2023-02-20T06:13:53;23.58;;;13.43;;
52724;SDS011;38621;52.830;6.914;2023-02-20T06:16:25;22.55;;;13.40;;
52724;SDS011;38621;52.830;6.914;2023-02-20T06:18:52;20.88;;;12.88;;
52724;SDS011;38621;52.830;6.914;2023-02-20T06:21:19;21.67;;;13.95;;
52724;SDS011;38621;52.830;6.914;2023-02-20T06:23:47;23.10;;;11.82;;
52724;SDS011;38621;52.830;6.914;2023-02-20T06:26:13;18.10;;;12.30;;
52724;SDS011;38621;52.830;6.914;2023-02-20T06:28:40;21.10;;;12.05;;
52724;SDS011;38621;52.830;6.914;2023-02-20T06:31:06;23.42;;;12.60;;
52724;SDS011;38621;52.830;6.914;2023-02-20T06:33:33;22.10;;;12.50;;
52724;SDS011;38621;52.830;6.914;2023-02-20T06:35:59;21.98;;;12.63;;
52724;SDS011;38621;52.830;6.914;2023-02-20T06:38:25;20.95;;;10.95;;
52724;SDS011;38621;52.830;6.914;2023-02-20T06:40:51;22.23;;;13.05;;
52724;SDS011;38621;52.830;6.914;2023-02-20T06:43:17;22.02;;;12.98;;
52724;SDS011;38621;52.830;6.914;2023-02-20T06:45:43;19.70;;;13.32;;
52724;SDS011;38621;52.830;6.914;2023-02-20T06:48:10;19.55;;;10.98;;
52724;SDS011;38621;52.830;6.914;2023-02-20T06:50:38;18.27;;;11.70;;
52724;SDS011;38621;52.830;6.914;2023-02-20T06:53:04;20.00;;;10.77;;
52724;SDS011;38621;52.830;6.914;2023-02-20T06:55:30;20.33;;;11.35;;
52724;SDS011;38621;52.830;6.914;2023-02-20T06:57:57;18.83;;;11.43;;
52724;SDS011;38621;52.830;6.914;2023-02-20T07:00:23;18.05;;;12.57;;
52724;SDS011;38621;52.830;6.914;2023-02-20T07:02:49;18.55;;;11.85;;
52724;SDS011;38621;52.830;6.914;2023-02-20T07:05:15;20.15;;;10.98;;
52724;SDS011;38621;52.830;6.914;2023-02-20T07:07:40;16.50;;;11.45;;
52724;SDS011;38621;52.830;6.914;2023-02-20T07:10:06;15.90;;;10.38;;
52724;SDS011;38621;52.830;6.914;2023-02-20T07:12:32;16.38;;;10.13;;
52724;SDS011;38621;52.830;6.914;2023-02-20T07:15:01;17.70;;;11.30;;
52724;SDS011;38621;52.830;6.914;2023-02-20T07:17:27;17.58;;;10.73;;
52724;SDS011;38621;52.830;6.914;2023-02-20T07:19:53;16.85;;;9.60;;
52724;SDS011;38621;52.830;6.914;2023-02-20T07:22:19;16.63;;;10.07;;
52724;SDS011;38621;52.830;6.914;2023-02-20T07:24:48;18.92;;;10.43;;
52724;SDS011;38621;52.830;6.914;2023-02-20T07:27:15;15.27;;;8.85;;
52724;SDS011;38621;52.830;6.914;2023-02-20T07:29:44;16.17;;;8.88;;
52724;SDS011;38621;52.830;6.914;2023-02-20T07:32:11;19.05;;;11.80;;
52724;SDS011;38621;52.830;6.914;2023-02-20T07:34:37;19.23;;;10.48;;
52724;SDS011;38621;52.830;6.914;2023-02-20T07:37:03;15.55;;;8.95;;
52724;SDS011;38621;52.830;6.914;2023-02-20T07:39:28;16.20;;;9.25;;
52724;SDS011;38621;52.830;6.914;2023-02-20T07:41:54;16.15;;;9.23;;
52724;SDS011;38621;52.830;6.914;2023-02-20T07:44:20;15.32;;;9.10;;
52724;SDS011;38621;52.830;6.914;2023-02-20T07:46:46;13.88;;;8.27;;
52724;SDS011;38621;52.830;6.914;2023-02-20T07:49:11;15.32;;;8.30;;
52724;SDS011;38621;52.830;6.914;2023-02-20T07:51:37;14.35;;;8.63;;
52724;SDS011;38621;52.830;6.914;2023-02-20T07:54:03;13.38;;;7.53;;
52724;SDS011;38621;52.830;6.914;2023-02-20T07:56:29;15.57;;;7.88;;
52724;SDS011;38621;52.830;6.914;2023-02-20T07:58:54;15.85;;;7.75;;
52724;SDS011;38621;52.830;6.914;2023-02-20T08:01:20;15.30;;;8.20;;
52724;SDS011;38621;52.830;6.914;2023-02-20T08:03:46;16.10;;;7.90;;
52724;SDS011;38621;52.830;6.914;2023-02-20T08:06:12;12.35;;;6.97;;
52724;SDS011;38621;52.830;6.914;2023-02-20T08:08:40;15.32;;;8.65;;
52724;SDS011;38621;52.830;6.914;2023-02-20T08:11:06;10.55;;;6.70;;
52724;SDS011;38621;52.830;6.914;2023-02-20T08:13:32;13.55;;;8.35;;
52724;SDS011;38621;52.830;6.914;2023-02-20T08:15:58;10.63;;;7.25;;
52724;SDS011;38621;52.830;6.914;2023-02-20T08:18:23;14.13;;;8.63;;
52724;SDS011;38621;52.830;6.914;2023-02-20T08:20:49;14.02;;;7.80;;
52724;SDS011;38621;52.830;6.914;2023-02-20T08:23:21;14.93;;;7.20;;
52724;SDS011;38621;52.830;6.914;2023-02-20T08:25:48;13.93;;;8.23;;
52724;SDS011;38621;52.830;6.914;2023-02-20T08:28:14;17.70;;;7.45;;
52724;SDS011;38621;52.830;6.914;2023-02-20T08:30:40;13.75;;;6.90;;
52724;SDS011;38621;52.830;6.914;2023-02-20T08:33:06;9.77;;;6.57;;
52724;SDS011;38621;52.830;6.914;2023-02-20T08:35:32;10.82;;;6.95;;
52724;SDS011;38621;52.830;6.914;2023-02-20T08:38:05;14.48;;;7.45;;
52724;SDS011;38621;52.830;6.914;2023-02-20T08:40:45;13.90;;;7.22;;
52724;SDS011;38621;52.830;6.914;2023-02-20T08:43:11;9.80;;;6.57;;
52724;SDS011;38621;52.830;6.914;2023-02-20T08:45:37;12.00;;;6.60;;
52724;SDS011;38621;52.830;6.914;2023-02-20T08:48:03;16.48;;;6.93;;
52724;SDS011;38621;52.830;6.914;2023-02-20T08:50:28;11.80;;;6.63;;
52724;SDS011;38621;52.830;6.914;2023-02-20T08:52:54;14.02;;;6.97;;
52724;SDS011;38621;52.830;6.914;2023-02-20T08:55:20;10.50;;;5.43;;
52724;SDS011;38621;52.830;6.914;2023-02-20T08:57:45;10.52;;;6.88;;
52724;SDS011;38621;52.830;6.914;2023-02-20T09:00:12;11.35;;;6.28;;
52724;SDS011;38621;52.830;6.914;2023-02-20T09:02:39;8.32;;;5.55;;
52724;SDS011;38621;52.830;6.914;2023-02-20T09:05:06;10.05;;;5.70;;
52724;SDS011;38621;52.830;6.914;2023-02-20T09:07:32;10.02;;;5.72;;
52724;SDS011;38621;52.830;6.914;2023-02-20T09:09:58;10.98;;;6.13;;
52724;SDS011;38621;52.830;6.914;2023-02-20T09:12:23;9.93;;;6.78;;
52724;SDS011;38621;52.830;6.914;2023-02-20T09:14:49;9.10;;;5.03;;
52724;SDS011;38621;52.830;6.914;2023-02-20T09:17:15;10.90;;;6.43;;
52724;SDS011;38621;52.830;6.914;2023-02-20T09:19:41;9.63;;;6.38;;
52724;SDS011;38621;52.830;6.914;2023-02-20T09:22:07;13.50;;;6.85;;
52724;SDS011;38621;52.830;6.914;2023-02-20T09:24:33;11.23;;;6.65;;
52724;SDS011;38621;52.830;6.914;2023-02-20T09:26:59;12.27;;;6.22;;
52724;SDS011;38621;52.830;6.914;2023-02-20T09:29:26;8.75;;;5.72;;
52724;SDS011;38621;52.830;6.914;2023-02-20T09:31:52;14.80;;;5.85;;
52724;SDS011;38621;52.830;6.914;2023-02-20T09:34:18;10.05;;;4.93;;
52724;SDS011;38621;52.830;6.914;2023-02-20T09:36:45;9.93;;;5.47;;
52724;SDS011;38621;52.830;6.914;2023-02-20T09:39:10;10.20;;;5.60;;
52724;SDS011;38621;52.830;6.914;2023-02-20T09:44:16;13.73;;;5.60;;
52724;SDS011;38621;52.830;6.914;2023-02-20T09:46:46;8.50;;;4.10;;
52724;SDS011;38621;52.830;6.914;2023-02-20T09:49:24;11.15;;;5.35;;
52724;SDS011;38621;52.830;6.914;2023-02-20T09:51:58;12.13;;;5.63;;
52724;SDS011;38621;52.830;6.914;2023-02-20T09:54:31;9.95;;;5.53;;
52724;SDS011;38621;52.830;6.914;2023-02-20T09:57:11;11.95;;;5.57;;
52724;SDS011;38621;52.830;6.914;2023-02-20T09:59:41;8.32;;;4.93;;
52724;SDS011;38621;52.830;6.914;2023-02-20T10:05:19;10.90;;;5.10;;
52724;SDS011;38621;52.830;6.914;2023-02-20T10:07:48;8.23;;;4.05;;
52724;SDS011;38621;52.830;6.914;2023-02-20T10:16:05;6.95;;;4.10;;
52724;SDS011;38621;52.830;6.914;2023-02-20T10:23:49;9.45;;;5.38;;
52724;SDS011;38621;52.830;6.914;2023-02-20T10:29:08;10.60;;;5.25;;
52724;SDS011;38621;52.830;6.914;2023-02-20T10:31:59;10.57;;;5.10;;
52724;SDS011;38621;52.830;6.914;2023-02-20T10:34:33;8.02;;;4.68;;
52724;SDS011;38621;52.830;6.914;2023-02-20T10:37:12;9.90;;;4.70;;
52724;SDS011;38621;52.830;6.914;2023-02-20T10:39:46;7.80;;;4.40;;
52724;SDS011;38621;52.830;6.914;2023-02-20T10:42:35;7.45;;;4.47;;
52724;SDS011;38621;52.830;6.914;2023-02-20T10:45:07;10.88;;;5.25;;
52724;SDS011;38621;52.830;6.914;2023-02-20T10:52:59;7.03;;;4.68;;
52724;SDS011;38621;52.830;6.914;2023-02-20T10:55:40;9.95;;;4.60;;
52724;SDS011;38621;52.830;6.914;2023-02-20T11:01:12;8.50;;;4.13;;
52724;SDS011;38621;52.830;6.914;2023-02-20T11:06:20;8.30;;;4.63;;
52724;SDS011;38621;52.830;6.914;2023-02-20T11:08:50;7.60;;;4.32;;
52724;SDS011;38621;52.830;6.914;2023-02-20T11:13:55;6.13;;;4.45;;
52724;SDS011;38621;52.830;6.914;2023-02-20T11:16:25;6.68;;;3.85;;
52724;SDS011;38621;52.830;6.914;2023-02-20T11:19:03;5.97;;;3.63;;
52724;SDS011;38621;52.830;6.914;2023-02-20T11:21:39;6.28;;;3.72;;
52724;SDS011;38621;52.830;6.914;2023-02-20T11:24:17;10.30;;;4.03;;
52724;SDS011;38621;52.830;6.914;2023-02-20T11:26:45;6.75;;;4.38;;
52724;SDS011;38621;52.830;6.914;2023-02-20T11:29:15;6.80;;;4.10;;
52724;SDS011;38621;52.830;6.914;2023-02-20T11:31:43;9.95;;;3.72;;
52724;SDS011;38621;52.830;6.914;2023-02-20T11:34:21;7.90;;;2.90;;
52724;SDS011;38621;52.830;6.914;2023-02-20T11:36:50;5.85;;;3.88;;
52724;SDS011;38621;52.830;6.914;2023-02-20T11:39:23;8.70;;;4.15;;
52724;SDS011;38621;52.830;6.914;2023-02-20T11:42:13;9.90;;;4.43;;
52724;SDS011;38621;52.830;6.914;2023-02-20T11:44:41;8.48;;;3.83;;
52724;SDS011;38621;52.830;6.914;2023-02-20T11:49:48;7.70;;;2.88;;
52724;SDS011;38621;52.830;6.914;2023-02-20T11:52:31;10.48;;;4.68;;
52724;SDS011;38621;52.830;6.914;2023-02-20T11:55:19;8.43;;;4.10;;
52724;SDS011;38621;52.830;6.914;2023-02-20T11:57:45;9.90;;;4.65;;
52724;SDS011;38621;52.830;6.914;2023-02-20T12:00:22;7.15;;;3.97;;
52724;SDS011;38621;52.830;6.914;2023-02-20T12:02:54;6.85;;;3.78;;
52724;SDS011;38621;52.830;6.914;2023-02-20T12:08:19;11.40;;;4.00;;
52724;SDS011;38621;52.830;6.914;2023-02-20T12:11:16;9.48;;;4.00;;
52724;SDS011;38621;52.830;6.914;2023-02-20T12:13:44;7.63;;;3.97;;
52724;SDS011;38621;52.830;6.914;2023-02-20T12:30:32;7.10;;;4.15;;
52724;SDS011;38621;52.830;6.914;2023-02-20T12:36:20;7.70;;;4.00;;
52724;SDS011;38621;52.830;6.914;2023-02-20T12:44:33;8.43;;;3.60;;
52724;SDS011;38621;52.830;6.914;2023-02-20T12:55:16;7.80;;;4.05;;
52724;SDS011;38621;52.830;6.914;2023-02-20T13:01:02;8.10;;;4.18;;
52724;SDS011;38621;52.830;6.914;2023-02-20T13:03:40;7.95;;;3.88;;
52724;SDS011;38621;52.830;6.914;2023-02-20T13:06:07;7.30;;;3.77;;
52724;SDS011;38621;52.830;6.914;2023-02-20T13:08:37;8.18;;;3.83;;
52724;SDS011;38621;52.830;6.914;2023-02-20T13:11:19;8.27;;;4.32;;
52724;SDS011;38621;52.830;6.914;2023-02-20T13:16:21;5.22;;;3.38;;
52724;SDS011;38621;52.830;6.914;2023-02-20T13:19:01;10.60;;;4.07;;
52724;SDS011;38621;52.830;6.914;2023-02-20T13:21:47;9.25;;;4.10;;
52724;SDS011;38621;52.830;6.914;2023-02-20T13:26:58;9.20;;;3.67;;
52724;SDS011;38621;52.830;6.914;2023-02-20T13:29:31;8.18;;;4.30;;
52724;SDS011;38621;52.830;6.914;2023-02-20T13:34:42;5.05;;;3.90;;
52724;SDS011;38621;52.830;6.914;2023-02-20T13:45:43;7.20;;;4.00;;
52724;SDS011;38621;52.830;6.914;2023-02-20T13:56:21;7.07;;;3.53;;
52724;SDS011;38621;52.830;6.914;2023-02-20T13:58:56;7.85;;;4.13;;
52724;SDS011;38621;52.830;6.914;2023-02-20T14:01:23;9.98;;;4.32;;
52724;SDS011;38621;52.830;6.914;2023-02-20T14:03:58;6.38;;;3.17;;
52724;SDS011;38621;52.830;6.914;2023-02-20T14:06:28;11.93;;;4.03;;
52724;SDS011;38621;52.830;6.914;2023-02-20T14:09:15;6.68;;;3.53;;
52724;SDS011;38621;52.830;6.914;2023-02-20T14:11:44;7.60;;;3.35;;
52724;SDS011;38621;52.830;6.914;2023-02-20T14:14:13;8.02;;;3.83;;
52724;SDS011;38621;52.830;6.914;2023-02-20T14:17:01;8.93;;;3.58;;
52724;SDS011;38621;52.830;6.914;2023-02-20T14:19:51;8.88;;;4.30;;
52724;SDS011;38621;52.830;6.914;2023-02-20T14:22:24;7.03;;;4.50;;
52724;SDS011;38621;52.830;6.914;2023-02-20T14:27:28;8.90;;;3.65;;
52724;SDS011;38621;52.830;6.914;2023-02-20T14:30:06;7.28;;;3.85;;
52724;SDS011;38621;52.830;6.914;2023-02-20T14:32:42;8.25;;;4.20;;
52724;SDS011;38621;52.830;6.914;2023-02-20T14:40:42;9.85;;;3.85;;
52724;SDS011;38621;52.830;6.914;2023-02-20T14:43:14;8.70;;;4.20;;
52724;SDS011;38621;52.830;6.914;2023-02-20T14:45:44;6.38;;;3.20;;
52724;SDS011;38621;52.830;6.914;2023-02-20T14:48:22;6.78;;;3.22;;
52724;SDS011;38621;52.830;6.914;2023-02-20T14:53:35;7.50;;;4.20;;
52724;SDS011;38621;52.830;6.914;2023-02-20T14:56:08;10.10;;;3.92;;
52724;SDS011;38621;52.830;6.914;2023-02-20T14:58:38;8.85;;;4.30;;
52724;SDS011;38621;52.830;6.914;2023-02-20T15:06:32;6.22;;;3.85;;
52724;SDS011;38621;52.830;6.914;2023-02-20T15:09:00;8.57;;;4.00;;
52724;SDS011;38621;52.830;6.914;2023-02-20T15:11:27;6.82;;;3.63;;
52724;SDS011;38621;52.830;6.914;2023-02-20T15:13:53;7.57;;;4.20;;
52724;SDS011;38621;52.830;6.914;2023-02-20T15:16:20;7.50;;;4.20;;
52724;SDS011;38621;52.830;6.914;2023-02-20T15:18:53;6.13;;;3.20;;
52724;SDS011;38621;52.830;6.914;2023-02-20T15:21:29;9.15;;;3.58;;
52724;SDS011;38621;52.830;6.914;2023-02-20T15:24:10;8.60;;;4.10;;
52724;SDS011;38621;52.830;6.914;2023-02-20T15:26:51;8.23;;;4.80;;
52724;SDS011;38621;52.830;6.914;2023-02-20T15:29:21;9.82;;;4.20;;
52724;SDS011;38621;52.830;6.914;2023-02-20T15:32:33;10.48;;;3.85;;
52724;SDS011;38621;52.830;6.914;2023-02-20T15:34:42;7.78;;;4.10;;
52724;SDS011;38621;52.830;6.914;2023-02-20T15:37:28;7.55;;;4.25;;
52724;SDS011;38621;52.830;6.914;2023-02-20T15:40:04;7.22;;;3.72;;
52724;SDS011;38621;52.830;6.914;2023-02-20T15:42:33;7.82;;;4.00;;
52724;SDS011;38621;52.830;6.914;2023-02-20T15:44:59;7.32;;;3.65;;
52724;SDS011;38621;52.830;6.914;2023-02-20T15:47:24;6.88;;;4.10;;
52724;SDS011;38621;52.830;6.914;2023-02-20T15:49:50;9.95;;;4.53;;
52724;SDS011;38621;52.830;6.914;2023-02-20T15:52:17;9.95;;;3.95;;
52724;SDS011;38621;52.830;6.914;2023-02-20T15:54:46;7.70;;;4.05;;
52724;SDS011;38621;52.830;6.914;2023-02-20T15:57:18;6.80;;;3.53;;
52724;SDS011;38621;52.830;6.914;2023-02-20T15:59:44;7.53;;;3.70;;
52724;SDS011;38621;52.830;6.914;2023-02-20T16:02:16;7.95;;;3.55;;
52724;SDS011;38621;52.830;6.914;2023-02-20T16:04:48;8.18;;;4.05;;
52724;SDS011;38621;52.830;6.914;2023-02-20T16:07:15;6.82;;;3.80;;
52724;SDS011;38621;52.830;6.914;2023-02-20T16:09:43;4.88;;;2.83;;
52724;SDS011;38621;52.830;6.914;2023-02-20T16:12:14;8.68;;;3.42;;
52724;SDS011;38621;52.830;6.914;2023-02-20T16:14:43;8.02;;;3.75;;
52724;SDS011;38621;52.830;6.914;2023-02-20T16:17:11;5.30;;;3.00;;
52724;SDS011;38621;52.830;6.914;2023-02-20T16:19:46;6.53;;;3.42;;
52724;SDS011;38621;52.830;6.914;2023-02-20T16:22:11;7.22;;;3.78;;
52724;SDS011;38621;52.830;6.914;2023-02-20T16:24:37;7.32;;;3.63;;
52724;SDS011;38621;52.830;6.914;2023-02-20T16:27:04;5.85;;;3.72;;
52724;SDS011;38621;52.830;6.914;2023-02-20T16:29:31;6.43;;;3.72;;
52724;SDS011;38621;52.830;6.914;2023-02-20T16:34:26;9.32;;;4.32;;
52724;SDS011;38621;52.830;6.914;2023-02-20T16:36:55;7.40;;;4.43;;
52724;SDS011;38621;52.830;6.914;2023-02-20T16:39:21;6.63;;;3.75;;
52724;SDS011;38621;52.830;6.914;2023-02-20T16:41:47;8.75;;;4.72;;
52724;SDS011;38621;52.830;6.914;2023-02-20T16:44:13;7.18;;;4.47;;
52724;SDS011;38621;52.830;6.914;2023-02-20T16:46:47;7.55;;;3.72;;
52724;SDS011;38621;52.830;6.914;2023-02-20T16:49:13;8.40;;;4.25;;
52724;SDS011;38621;52.830;6.914;2023-02-20T16:51:42;8.48;;;4.47;;
52724;SDS011;38621;52.830;6.914;2023-02-20T16:54:13;6.75;;;4.03;;
52724;SDS011;38621;52.830;6.914;2023-02-20T16:56:39;9.00;;;4.63;;
52724;SDS011;38621;52.830;6.914;2023-02-20T16:59:05;7.10;;;4.82;;
52724;SDS011;38621;52.830;6.914;2023-02-20T17:01:33;9.73;;;5.03;;
52724;SDS011;38621;52.830;6.914;2023-02-20T17:03:59;8.10;;;4.72;;
52724;SDS011;38621;52.830;6.914;2023-02-20T17:06:25;7.43;;;4.80;;
52724;SDS011;38621;52.830;6.914;2023-02-20T17:08:54;8.07;;;5.05;;
52724;SDS011;38621;52.830;6.914;2023-02-20T17:11:21;8.05;;;4.95;;
52724;SDS011;38621;52.830;6.914;2023-02-20T17:13:47;7.57;;;4.10;;
52724;SDS011;38621;52.830;6.914;2023-02-20T17:16:12;8.43;;;5.80;;
52724;SDS011;38621;52.830;6.914;2023-02-20T17:18:38;10.63;;;5.95;;
52724;SDS011;38621;52.830;6.914;2023-02-20T17:21:04;9.15;;;5.05;;
52724;SDS011;38621;52.830;6.914;2023-02-20T17:23:30;7.20;;;4.78;;